createdAt,value
2023-02-04T00:00:08.409Z,103369.58
2023-02-04T00:02:38.379Z,103370.05
2023-02-04T00:05:08.815Z,103376.16
2023-02-04T00:07:39.557Z,103380.52
2023-02-04T00:10:10.838Z,103383.50
2023-02-04T00:12:40.395Z,103382.63
2023-02-04T00:15:10.821Z,103386.98
2023-02-04T00:17:40.176Z,103389.22
2023-02-04T00:20:10.604Z,103387.81
2023-02-04T00:22:40.110Z,103386.52
2023-02-04T00:25:09.639Z,103383.45
2023-02-04T00:27:39.505Z,103385.19
2023-02-04T00:30:09.898Z,103387.64
2023-02-04T00:32:39.695Z,103388.13
2023-02-04T00:35:09.416Z,103386.07
2023-02-04T00:37:38.611Z,103388.69
2023-02-04T00:40:08.862Z,103383.14
2023-02-04T00:42:38.459Z,103379.97
2023-02-04T00:45:08.325Z,103374.33
2023-02-04T00:47:37.767Z,103383.45
2023-02-04T00:50:07.357Z,103377.39
2023-02-04T00:52:36.802Z,103379.30
2023-02-04T00:55:08.005Z,103379.70
2023-02-04T00:57:37.294Z,103382.72
2023-02-04T01:00:07.693Z,103386.20
2023-02-04T01:02:37.338Z,103387.16
2023-02-04T01:05:07.006Z,103390.09
2023-02-04T01:07:36.769Z,103387.95
2023-02-04T01:10:06.633Z,103389.22
2023-02-04T01:12:36.299Z,103392.70
2023-02-04T01:15:07.996Z,103399.21
2023-02-04T01:17:37.259Z,103401.47
2023-02-04T01:20:06.975Z,103413.26
2023-02-04T01:22:36.798Z,103404.49
2023-02-04T01:25:06.629Z,103408.81
2023-02-04T01:27:42.982Z,103409.73
2023-02-04T01:30:14.066Z,103406.20
2023-02-04T01:32:43.605Z,103403.70
2023-02-04T01:35:12.824Z,103403.66
2023-02-04T01:37:42.211Z,103401.52
2023-02-04T01:40:12.474Z,103408.86
2023-02-04T01:42:42.067Z,103410.95
2023-02-04T01:45:11.824Z,103418.50
2023-02-04T01:47:41.813Z,103428.14
2023-02-04T01:50:14.150Z,103425.52
2023-02-04T01:52:45.869Z,103426.35
2023-02-04T01:55:22.811Z,103421.91
2023-02-04T01:57:53.309Z,103420.95
2023-02-04T02:00:29.059Z,103419.80
2023-02-04T02:02:59.508Z,103422.34
2023-02-04T02:05:31.755Z,103437.70
2023-02-04T02:08:03.315Z,103435.69
2023-02-04T02:10:33.084Z,103429.22
2023-02-04T02:13:03.077Z,103434.94
2023-02-04T02:15:33.063Z,103430.48
2023-02-04T02:18:02.496Z,103426.30
2023-02-04T02:20:32.337Z,103422.89
2023-02-04T02:23:17.116Z,103439.50
2023-02-04T02:25:46.718Z,103436.06
2023-02-04T02:28:18.366Z,103440.86
2023-02-04T02:30:49.820Z,103436.56
2023-02-04T02:33:20.718Z,103445.73
2023-02-04T02:35:51.295Z,103448.47
2023-02-04T02:38:21.411Z,103450.02
2023-02-04T02:40:52.460Z,103450.33
2023-02-04T02:43:25.029Z,103451.17
2023-02-04T02:45:55.252Z,103454.85
2023-02-04T02:48:24.794Z,103457.94
2023-02-04T02:50:54.942Z,103457.47
2023-02-04T02:53:24.542Z,103457.03
2023-02-04T02:55:55.133Z,103453.30
2023-02-04T02:58:32.407Z,103451.20
2023-02-04T03:01:04.235Z,103454.38
2023-02-04T03:03:37.666Z,103453.98
2023-02-04T03:06:17.005Z,103454.42
2023-02-04T03:08:46.482Z,103450.14
2023-02-04T03:11:15.926Z,103446.20
2023-02-04T03:13:45.820Z,103448.94
2023-02-04T03:16:15.352Z,103451.33
2023-02-04T03:18:45.212Z,103452.78
2023-02-04T03:21:14.502Z,103454.67
2023-02-04T03:23:44.102Z,103451.38
2023-02-04T03:26:13.410Z,103459.91
2023-02-04T03:28:44.167Z,103459.91
2023-02-04T03:31:13.556Z,103450.75
2023-02-04T03:33:43.242Z,103454.17
2023-02-04T03:36:12.542Z,103453.05
2023-02-04T03:38:41.966Z,103455.88
2023-02-04T03:41:11.553Z,103460.42
2023-02-04T03:43:40.782Z,103463.77
2023-02-04T03:46:10.239Z,103467.83
2023-02-04T03:48:39.706Z,103465.98
2023-02-04T03:51:09.016Z,103474.52
2023-02-04T03:53:38.287Z,103478.65
2023-02-04T03:56:08.102Z,103475.06
2023-02-04T03:58:37.782Z,103475.09
2023-02-04T04:01:07.309Z,103477.47
2023-02-04T04:03:36.650Z,103480.16
2023-02-04T04:06:09.250Z,103480.45
2023-02-04T04:08:39.420Z,103487.82
2023-02-04T04:11:08.871Z,103487.71
2023-02-04T04:13:38.077Z,103489.02
2023-02-04T04:16:09.059Z,103489.49
2023-02-04T04:18:38.458Z,103493.56
2023-02-04T04:21:07.718Z,103493.75
2023-02-04T04:23:37.173Z,103500.69
2023-02-04T04:26:06.531Z,103502.68
2023-02-04T04:28:35.752Z,103504.23
2023-02-04T04:31:05.250Z,103512.01
2023-02-04T04:33:34.565Z,103520.99
2023-02-04T04:36:03.874Z,103519.55
2023-02-04T04:38:33.274Z,103524.09
2023-02-04T04:41:03.117Z,103521.11
2023-02-04T04:43:32.333Z,103526.38
2023-02-04T04:46:01.594Z,103519.04
2023-02-04T04:48:30.823Z,103516.86
2023-02-04T04:51:00.374Z,103520.53
2023-02-04T04:53:29.673Z,103515.19
2023-02-04T04:55:59.022Z,103510.32
2023-02-04T04:58:28.357Z,103502.03
2023-02-04T05:00:57.888Z,103506.87
2023-02-04T05:03:27.193Z,103502.98
2023-02-04T05:05:56.456Z,103508.72
2023-02-04T05:08:26.045Z,103506.47
2023-02-04T05:10:55.310Z,103510.43
2023-02-04T05:13:25.327Z,103514.28
2023-02-04T05:15:54.598Z,103524.35
2023-02-04T05:18:24.206Z,103523.80
2023-02-04T05:20:53.543Z,103523.73
2023-02-04T05:23:22.904Z,103526.12
2023-02-04T05:25:52.193Z,103531.21
2023-02-04T05:28:21.520Z,103527.80
2023-02-04T05:30:50.805Z,103530.30
2023-02-04T05:33:20.091Z,103536.73
2023-02-04T05:35:50.027Z,103542.92
2023-02-04T05:38:19.533Z,103547.32
2023-02-04T05:40:48.782Z,103544.95
2023-02-04T05:43:18.124Z,103543.01
2023-02-04T05:45:47.480Z,103540.23
2023-02-04T05:48:17.034Z,103535.47
2023-02-04T05:50:46.282Z,103540.31
2023-02-04T05:53:15.843Z,103546.14
2023-02-04T05:55:45.265Z,103545.66
2023-02-04T05:58:14.990Z,103539.75
2023-02-04T06:00:44.313Z,103545.39
2023-02-04T06:03:14.684Z,103552.41
2023-02-04T06:05:44.388Z,103557.16
2023-02-04T06:08:15.337Z,103556.66
2023-02-04T06:10:44.629Z,103552.53
2023-02-04T06:13:14.140Z,103552.69
2023-02-04T06:15:43.898Z,103555.27
2023-02-04T06:18:14.396Z,103558.84
2023-02-04T06:20:44.015Z,103565.81
2023-02-04T06:23:13.441Z,103572.80
2023-02-04T06:25:42.762Z,103568.55
2023-02-04T06:28:12.366Z,103576.00
2023-02-04T06:30:41.754Z,103573.39
2023-02-04T06:33:11.319Z,103571.17
2023-02-04T06:35:40.532Z,103577.16
2023-02-04T06:38:10.258Z,103583.70
2023-02-04T06:40:39.472Z,103587.17
2023-02-04T06:43:09.100Z,103591.20
2023-02-04T06:45:38.313Z,103592.19
2023-02-04T06:48:07.848Z,103596.04
2023-02-04T06:50:37.223Z,103596.04
2023-02-04T06:53:06.768Z,103603.35
2023-02-04T06:55:36.405Z,103599.27
2023-02-04T06:58:06.098Z,103595.70
2023-02-04T07:00:35.673Z,103590.88
2023-02-04T07:03:06.856Z,103597.73
2023-02-04T07:05:36.862Z,103598.61
2023-02-04T07:08:06.475Z,103602.47
2023-02-04T07:10:35.960Z,103603.61
2023-02-04T07:13:05.679Z,103605.48
2023-02-04T07:15:35.110Z,103611.55
2023-02-04T07:18:04.704Z,103608.34
2023-02-04T07:20:34.246Z,103609.17
2023-02-04T07:23:04.145Z,103607.98
2023-02-04T07:25:33.363Z,103614.57
2023-02-04T07:28:04.739Z,103614.89
2023-02-04T07:30:34.916Z,103618.50
2023-02-04T07:33:05.028Z,103621.52
2023-02-04T07:35:34.321Z,103619.30
2023-02-04T07:38:03.894Z,103625.38
2023-02-04T07:40:33.937Z,103621.95
2023-02-04T07:43:03.786Z,103623.36
2023-02-04T07:45:34.795Z,103629.50
2023-02-04T07:48:04.235Z,103637.73
2023-02-04T07:50:33.828Z,103633.80
2023-02-04T07:53:04.023Z,103635.46
2023-02-04T07:55:33.407Z,103637.97
2023-02-04T07:58:02.885Z,103643.28
2023-02-04T08:00:32.582Z,103646.75
2023-02-04T08:03:02.941Z,103648.41
2023-02-04T08:05:32.562Z,103651.07
2023-02-04T08:08:02.211Z,103651.98
2023-02-04T08:10:32.338Z,103653.97
2023-02-04T08:13:01.784Z,103651.87
2023-02-04T08:15:31.612Z,103664.42
2023-02-04T08:18:00.918Z,103665.21
2023-02-04T08:20:31.493Z,103661.20
2023-02-04T08:23:00.867Z,103666.00
2023-02-04T08:25:30.341Z,103661.99
2023-02-04T08:27:59.675Z,103664.45
2023-02-04T08:30:29.160Z,103668.70
2023-02-04T08:32:58.478Z,103667.75
2023-02-04T08:35:27.962Z,103667.07
2023-02-04T08:37:57.368Z,103670.16
2023-02-04T08:40:27.225Z,103675.69
2023-02-04T08:42:56.833Z,103681.33
2023-02-04T08:45:26.187Z,103682.24
2023-02-04T08:47:55.459Z,103684.91
2023-02-04T08:50:25.210Z,103688.40
2023-02-04T08:52:54.509Z,103699.52
2023-02-04T08:55:23.831Z,103705.52
2023-02-04T08:57:53.079Z,103701.80
2023-02-04T09:00:23.604Z,103707.89
2023-02-04T09:02:53.069Z,103707.71
2023-02-04T09:05:22.410Z,103711.17
2023-02-04T09:07:51.620Z,103717.34
2023-02-04T09:10:20.966Z,103716.94
2023-02-04T09:12:50.347Z,103718.56
2023-02-04T09:15:19.688Z,103721.94
2023-02-04T09:17:48.928Z,103716.42
2023-02-04T09:20:18.534Z,103719.66
2023-02-04T09:22:49.983Z,103722.12
2023-02-04T09:25:19.436Z,103727.89
2023-02-04T09:27:48.699Z,103724.17
2023-02-04T09:30:19.621Z,103731.38
2023-02-04T09:32:48.840Z,103738.64
2023-02-04T09:35:18.193Z,103736.70
2023-02-04T09:37:47.398Z,103734.17
2023-02-04T09:40:20.683Z,103736.10
2023-02-04T09:42:53.475Z,103732.65
2023-02-04T09:45:31.372Z,103733.57
2023-02-04T09:48:03.049Z,103733.19
2023-02-04T09:50:34.176Z,103740.00
2023-02-04T09:53:05.658Z,103739.06
2023-02-04T09:55:38.294Z,103741.27
2023-02-04T09:58:17.434Z,103745.16
2023-02-04T10:00:55.681Z,103749.25
2023-02-04T10:03:25.006Z,103751.42
2023-02-04T10:05:54.840Z,103746.50
2023-02-04T10:08:29.453Z,103756.66
2023-02-04T10:10:59.093Z,103758.42
2023-02-04T10:13:37.617Z,103761.03
2023-02-04T10:16:13.437Z,103749.92
2023-02-04T10:18:43.268Z,103758.60
2023-02-04T10:21:22.157Z,103758.37
2023-02-04T10:23:53.572Z,103753.27
2023-02-04T10:26:23.974Z,103756.88
2023-02-04T10:29:05.218Z,103751.50
2023-02-04T10:31:44.012Z,103756.52
2023-02-04T10:34:21.555Z,103763.37
2023-02-04T10:36:57.457Z,103763.64
2023-02-04T10:39:29.651Z,103771.54
2023-02-04T10:42:01.063Z,103766.65
2023-02-04T10:44:40.139Z,103771.02
2023-02-04T10:47:18.447Z,103768.13
2023-02-04T10:50:18.394Z,103768.83
2023-02-04T10:52:50.600Z,103765.26
2023-02-04T10:55:21.993Z,103771.47
2023-02-04T10:57:53.273Z,103771.77
2023-02-04T11:00:24.758Z,103766.31
2023-02-04T11:03:00.000Z,103773.62
2023-02-04T11:05:35.778Z,103766.92
2023-02-04T11:08:08.181Z,103766.08
2023-02-04T11:10:37.541Z,103771.36
2023-02-04T11:13:07.700Z,103767.59
2023-02-04T11:15:58.317Z,103770.78
2023-02-04T11:18:30.264Z,103773.45
2023-02-04T11:21:00.897Z,103770.23
2023-02-04T11:23:32.878Z,103765.36
2023-02-04T11:26:13.998Z,103761.59
2023-02-04T11:28:49.169Z,103762.91
2023-02-04T11:31:25.177Z,103759.95
2023-02-04T11:34:14.355Z,103759.61
2023-02-04T11:37:05.525Z,103759.47
2023-02-04T11:39:39.915Z,103760.93
2023-02-04T11:42:15.106Z,103753.83
2023-02-04T11:44:46.085Z,103759.73
2023-02-04T11:47:15.667Z,103760.36
2023-02-04T11:49:46.411Z,103756.66
2023-02-04T11:52:16.525Z,103750.48
2023-02-04T11:54:49.310Z,103755.03
2023-02-04T11:57:18.824Z,103755.96
2023-02-04T11:59:48.066Z,103752.13
2023-02-04T12:02:20.839Z,103755.63
2023-02-04T12:05:11.711Z,103752.16
2023-02-04T12:07:42.002Z,103748.28
2023-02-04T12:10:20.037Z,103751.77
2023-02-04T12:12:56.800Z,103752.27
2023-02-04T12:15:36.206Z,103756.42
2023-02-04T12:18:12.480Z,103758.77
2023-02-04T12:20:41.709Z,103756.48
2023-02-04T12:23:11.184Z,103751.79
2023-02-04T12:25:40.548Z,103751.48
2023-02-04T12:28:09.985Z,103751.19
2023-02-04T12:30:39.377Z,103752.24
2023-02-04T12:33:08.722Z,103763.58
2023-02-04T12:35:38.050Z,103757.95
2023-02-04T12:38:07.247Z,103761.34
2023-02-04T12:40:36.495Z,103764.27
2023-02-04T12:43:06.220Z,103761.32
2023-02-04T12:45:35.815Z,103757.59
2023-02-04T12:48:05.882Z,103761.47
2023-02-04T12:50:35.156Z,103768.05
2023-02-04T12:53:06.202Z,103764.23
2023-02-04T12:55:35.797Z,103765.13
2023-02-04T12:58:05.505Z,103765.30
2023-02-04T13:00:34.794Z,103763.62
2023-02-04T13:03:05.417Z,103763.88
2023-02-04T13:05:36.015Z,103758.36
2023-02-04T13:08:05.616Z,103759.50
2023-02-04T13:10:34.935Z,103756.11
2023-02-04T13:13:04.823Z,103752.95
2023-02-04T13:15:34.847Z,103751.40
2023-02-04T13:18:04.206Z,103750.14
2023-02-04T13:20:33.485Z,103752.95
2023-02-04T13:23:02.729Z,103755.34
2023-02-04T13:25:32.864Z,103751.60
2023-02-04T13:28:02.524Z,103748.63
2023-02-04T13:30:32.170Z,103740.53
2023-02-04T13:33:01.557Z,103741.48
2023-02-04T13:35:31.177Z,103744.31
2023-02-04T13:38:01.020Z,103739.11
2023-02-04T13:40:30.511Z,103736.42
2023-02-04T13:43:00.058Z,103729.50
2023-02-04T13:45:29.679Z,103727.06
2023-02-04T13:47:59.024Z,103716.75
2023-02-04T13:50:28.542Z,103727.77
2023-02-04T13:52:58.038Z,103726.11
2023-02-04T13:55:27.463Z,103726.27
2023-02-04T13:57:56.799Z,103729.69
2023-02-04T14:00:26.124Z,103732.34
2023-02-04T14:02:56.570Z,103730.80
2023-02-04T14:05:26.124Z,103735.73
2023-02-04T14:07:55.447Z,103733.09
2023-02-04T14:10:25.051Z,103730.38
2023-02-04T14:12:54.521Z,103726.33
2023-02-04T14:15:23.998Z,103731.92
2023-02-04T14:17:53.418Z,103690.55
2023-02-04T14:20:22.728Z,103734.87
2023-02-04T14:22:52.019Z,103732.27
2023-02-04T14:25:21.440Z,103729.90
2023-02-04T14:27:50.688Z,103732.30
2023-02-04T14:30:22.806Z,103732.63
2023-02-04T14:32:52.824Z,103731.74
2023-02-04T14:35:22.347Z,103726.77
2023-02-04T14:37:51.817Z,103731.82
2023-02-04T14:40:21.428Z,103727.98
2023-02-04T14:42:51.053Z,103733.11
2023-02-04T14:45:20.604Z,103734.98
2023-02-04T14:47:51.539Z,103732.80
2023-02-04T14:50:22.708Z,103731.35
2023-02-04T14:52:52.236Z,103734.53
2023-02-04T14:55:21.491Z,103732.55
2023-02-04T14:57:51.289Z,103731.13
2023-02-04T15:00:21.686Z,103735.32
2023-02-04T15:02:50.946Z,103737.86
2023-02-04T15:05:20.657Z,103737.52
2023-02-04T15:07:50.190Z,103739.22
2023-02-04T15:10:19.501Z,103745.98
2023-02-04T15:12:49.344Z,103740.81
2023-02-04T15:15:19.013Z,103744.27
2023-02-04T15:17:49.937Z,103747.80
2023-02-04T15:20:19.857Z,103753.31
2023-02-04T15:22:51.141Z,103748.02
2023-02-04T15:25:21.185Z,103750.59
2023-02-04T15:27:50.828Z,103748.89
2023-02-04T15:30:20.329Z,103752.40
2023-02-04T15:32:49.946Z,103757.16
2023-02-04T15:35:19.572Z,103754.63
2023-02-04T15:37:49.608Z,103757.66
2023-02-04T15:40:19.219Z,103759.06
2023-02-04T15:42:48.618Z,103760.98
2023-02-04T15:45:17.842Z,103763.09
2023-02-04T15:47:47.472Z,103771.80
2023-02-04T15:50:16.958Z,103765.95
2023-02-04T15:52:46.758Z,103770.42
2023-02-04T15:55:16.231Z,103765.69
2023-02-04T15:57:45.477Z,103763.67
2023-02-04T16:00:15.769Z,103766.34
2023-02-04T16:02:45.512Z,103768.06
2023-02-04T16:05:14.939Z,103763.55
2023-02-04T16:07:44.528Z,103766.78
2023-02-04T16:10:13.947Z,103769.45
2023-02-04T16:12:43.544Z,103766.52
2023-02-04T16:15:13.103Z,103765.38
2023-02-04T16:17:43.256Z,103764.16
2023-02-04T16:20:13.546Z,103761.62
2023-02-04T16:22:42.790Z,103766.52
2023-02-04T16:25:12.211Z,103768.44
2023-02-04T16:27:42.061Z,103770.27
2023-02-04T16:30:13.022Z,103772.86
2023-02-04T16:32:42.920Z,103778.11
2023-02-04T16:35:12.139Z,103774.86
2023-02-04T16:37:41.598Z,103787.06
2023-02-04T16:40:14.089Z,103785.72
2023-02-04T16:42:43.425Z,103789.37
2023-02-04T16:45:13.374Z,103791.64
2023-02-04T16:47:43.534Z,103792.08
2023-02-04T16:50:12.921Z,103793.31
2023-02-04T16:52:42.244Z,103799.48
2023-02-04T16:55:11.509Z,103800.78
2023-02-04T16:57:41.799Z,103802.93
2023-02-04T17:00:12.314Z,103805.23
2023-02-04T17:02:41.679Z,103809.29
2023-02-04T17:05:11.012Z,103807.94
2023-02-04T17:07:40.365Z,103805.35
2023-02-04T17:10:10.235Z,103798.84
2023-02-04T17:12:39.461Z,103805.87
2023-02-04T17:15:09.369Z,103800.66
2023-02-04T17:17:38.844Z,103800.19
2023-02-04T17:20:08.738Z,103807.17
2023-02-04T17:22:38.025Z,103802.02
2023-02-04T17:25:07.855Z,103811.23
2023-02-04T17:27:37.141Z,103816.55
2023-02-04T17:30:07.435Z,103801.04
2023-02-04T17:32:36.914Z,103809.59
2023-02-04T17:35:06.515Z,103809.99
2023-02-04T17:37:35.886Z,103809.95
2023-02-04T17:40:05.793Z,103808.12
2023-02-04T17:42:35.387Z,103810.80
2023-02-04T17:45:04.747Z,103814.28
2023-02-04T17:47:34.466Z,103814.69
2023-02-04T17:50:05.682Z,103825.53
2023-02-04T17:52:35.573Z,103822.92
2023-02-04T17:55:20.070Z,103819.02
2023-02-04T17:57:50.208Z,103828.20
2023-02-04T18:00:21.418Z,103838.29
2023-02-04T18:02:52.521Z,103835.78
2023-02-04T18:05:24.837Z,103844.02
2023-02-04T18:08:20.866Z,103844.84
2023-02-04T18:10:51.993Z,103841.31
2023-02-04T18:13:27.447Z,103837.85
2023-02-04T18:15:59.012Z,103833.81
2023-02-04T18:18:31.349Z,103832.89
2023-02-04T18:21:03.551Z,103837.78
2023-02-04T18:23:34.327Z,103834.20
2023-02-04T18:26:10.266Z,103832.94
2023-02-04T18:28:42.416Z,103833.84
2023-02-04T18:31:37.294Z,103832.53
2023-02-04T18:34:19.808Z,103839.05
2023-02-04T18:36:49.726Z,103846.52
2023-02-04T18:39:21.391Z,103845.69
2023-02-04T18:41:53.454Z,103839.13
2023-02-04T18:44:34.875Z,103846.92
2023-02-04T18:47:24.954Z,103842.98
2023-02-04T18:49:54.271Z,103847.75
2023-02-04T18:52:23.987Z,103848.16
2023-02-04T18:54:59.024Z,103854.72
2023-02-04T18:57:39.016Z,103854.72
2023-02-04T19:00:14.774Z,103855.98
2023-02-04T19:02:59.234Z,103854.64
2023-02-04T19:05:35.019Z,103849.80
2023-02-04T19:08:10.417Z,103855.91
2023-02-04T19:10:42.217Z,103852.38
2023-02-04T19:13:29.563Z,103853.25
2023-02-04T19:16:04.614Z,103856.20
2023-02-04T19:18:44.939Z,103860.97
2023-02-04T19:21:27.246Z,103857.88
2023-02-04T19:24:18.131Z,103855.88
2023-02-04T19:27:02.012Z,103862.14
2023-02-04T19:29:43.974Z,103862.30
2023-02-04T19:32:28.411Z,103854.47
2023-02-04T19:35:03.638Z,103851.91
2023-02-04T19:37:41.356Z,103858.11
2023-02-04T19:40:34.239Z,103860.69
2023-02-04T19:43:24.384Z,103855.77
2023-02-04T19:45:54.628Z,103858.53
2023-02-04T19:48:34.856Z,103847.69
2023-02-04T19:51:28.764Z,103851.55
2023-02-04T19:54:02.441Z,103853.26
2023-02-04T19:56:40.013Z,103844.92
2023-02-04T19:59:28.353Z,103841.42
2023-02-04T20:02:14.342Z,103847.36
2023-02-04T20:04:46.729Z,103840.80
2023-02-04T20:07:21.996Z,103833.92
2023-02-04T20:10:09.813Z,103832.65
2023-02-04T20:12:41.288Z,103834.73
2023-02-04T20:15:19.231Z,103839.86
2023-02-04T20:17:49.430Z,103838.52
2023-02-04T20:20:26.281Z,103834.54
2023-02-04T20:23:00.773Z,103824.64
2023-02-04T20:25:38.657Z,103827.33
2023-02-04T20:28:20.478Z,103827.80
2023-02-04T20:30:51.659Z,103829.55
2023-02-04T20:33:36.264Z,103834.33
2023-02-04T20:36:28.745Z,103836.41
2023-02-04T20:39:19.868Z,103838.91
2023-02-04T20:41:49.598Z,103841.50
2023-02-04T20:44:30.396Z,103846.05
2023-02-04T20:47:06.258Z,103847.77
2023-02-04T20:49:39.407Z,103841.64
2023-02-04T20:52:12.079Z,103845.14
2023-02-04T20:54:41.928Z,103835.97
2023-02-04T20:57:19.082Z,103840.30
2023-02-04T20:59:49.817Z,103832.94
2023-02-04T21:02:21.399Z,103823.88
2023-02-04T21:04:52.665Z,103816.52
2023-02-04T21:07:23.732Z,103823.07
2023-02-04T21:09:53.505Z,103829.08
2023-02-04T21:12:24.611Z,103826.86
2023-02-04T21:14:54.399Z,103829.52
2023-02-04T21:17:45.368Z,103832.58
2023-02-04T21:20:14.927Z,103830.35
2023-02-04T21:22:45.006Z,103832.94
2023-02-04T21:25:14.466Z,103834.54
2023-02-04T21:27:43.967Z,103833.59
2023-02-04T21:30:16.321Z,103822.70
2023-02-04T21:32:46.078Z,103816.63
2023-02-04T21:35:17.291Z,103817.86
2023-02-04T21:37:46.610Z,103820.16
2023-02-04T21:40:18.026Z,103820.67
2023-02-04T21:42:47.685Z,103820.74
2023-02-04T21:45:18.180Z,103825.14
2023-02-04T21:47:48.771Z,103822.09
2023-02-04T21:50:19.020Z,103824.16
2023-02-04T21:52:48.799Z,103827.33
2023-02-04T21:55:21.762Z,103825.66
2023-02-04T21:57:51.894Z,103829.19
2023-02-04T22:00:25.961Z,103836.39
2023-02-04T22:02:55.703Z,103838.94
2023-02-04T22:05:25.575Z,103834.00
2023-02-04T22:07:55.500Z,103837.89
2023-02-04T22:10:26.579Z,103846.84
2023-02-04T22:12:56.268Z,103853.66
2023-02-04T22:15:25.620Z,103844.16
2023-02-04T22:17:56.346Z,103837.56
2023-02-04T22:20:26.032Z,103834.50
2023-02-04T22:22:55.590Z,103830.50
2023-02-04T22:25:24.986Z,103835.89
2023-02-04T22:27:55.186Z,103841.64
2023-02-04T22:30:24.729Z,103841.70
2023-02-04T22:32:55.893Z,103836.47
2023-02-04T22:35:27.121Z,103841.23
2023-02-04T22:37:57.677Z,103856.59
2023-02-04T22:40:27.310Z,103858.34
2023-02-04T22:43:26.012Z,103854.45
2023-02-04T22:46:06.964Z,103854.14
2023-02-04T22:48:42.352Z,103849.78
2023-02-04T22:51:19.525Z,103852.03
2023-02-04T22:53:51.011Z,103846.39
2023-02-04T22:56:21.921Z,103851.19
2023-02-04T22:58:54.400Z,103855.59
2023-02-04T23:01:34.273Z,103847.70
2023-02-04T23:04:04.006Z,103842.42
2023-02-04T23:06:38.097Z,103827.97
2023-02-04T23:09:16.127Z,103830.09
2023-02-04T23:11:49.619Z,103831.77
2023-02-04T23:14:18.926Z,103833.48
2023-02-04T23:16:49.095Z,103832.94
2023-02-04T23:19:18.774Z,103831.62
2023-02-04T23:21:48.404Z,103828.09
2023-02-04T23:24:17.931Z,103829.84
2023-02-04T23:26:47.492Z,103821.11
2023-02-04T23:29:17.023Z,103822.38
2023-02-04T23:31:46.327Z,103820.63
2023-02-04T23:34:15.848Z,103823.66
2023-02-04T23:36:46.607Z,103813.64
2023-02-04T23:39:16.209Z,103808.47
2023-02-04T23:41:45.639Z,103803.70
2023-02-04T23:44:15.146Z,103803.30
2023-02-04T23:46:44.570Z,103792.84
2023-02-04T23:49:14.364Z,103804.24
2023-02-04T23:51:44.163Z,103811.12
2023-02-04T23:54:13.752Z,103804.09
2023-02-04T23:56:43.140Z,103805.05
2023-02-04T23:59:12.431Z,103798.86
